createdAt,value
2022-09-25T00:02:06.469Z,99883.00
2022-09-25T00:04:34.995Z,99889.00
2022-09-25T00:07:03.508Z,99880.00
2022-09-25T00:09:31.993Z,99886.00
2022-09-25T00:12:00.992Z,99887.00
2022-09-25T00:14:31.033Z,99885.00
2022-09-25T00:16:59.606Z,99885.00
2022-09-25T00:19:45.536Z,99881.00
2022-09-25T00:22:14.010Z,99885.00
2022-09-25T00:24:42.675Z,99885.00
2022-09-25T00:27:11.163Z,99881.00
2022-09-25T00:29:41.746Z,99880.00
2022-09-25T00:32:12.304Z,99877.00
2022-09-25T00:34:41.447Z,99877.00
2022-09-25T00:37:09.941Z,99889.00
2022-09-25T00:39:38.606Z,99881.00
2022-09-25T00:42:07.187Z,99876.00
2022-09-25T00:45:01.050Z,99872.00
2022-09-25T00:47:44.476Z,99875.00
2022-09-25T00:50:19.424Z,99884.00
2022-09-25T00:52:48.698Z,99874.00
2022-09-25T00:55:17.796Z,99876.00
2022-09-25T00:57:50.531Z,99871.00
2022-09-25T01:00:20.579Z,99867.00
2022-09-25T01:02:54.247Z,99875.00
2022-09-25T01:05:26.899Z,99873.00
2022-09-25T01:07:57.179Z,99875.00
2022-09-25T01:10:25.750Z,99866.00
2022-09-25T01:12:55.432Z,99866.00
2022-09-25T01:15:30.181Z,99872.00
2022-09-25T01:18:07.208Z,99863.00
2022-09-25T01:21:00.661Z,99867.00
2022-09-25T01:23:46.018Z,99858.00
2022-09-25T01:26:31.427Z,99864.00
2022-09-25T01:29:12.554Z,99868.00
2022-09-25T01:31:47.635Z,99873.00
2022-09-25T01:34:22.192Z,99866.00
2022-09-25T01:36:57.935Z,99873.00
2022-09-25T01:39:32.315Z,99869.00
2022-09-25T01:42:07.664Z,99869.00
2022-09-25T01:44:43.756Z,99873.00
2022-09-25T01:47:18.522Z,99862.00
2022-09-25T01:49:51.478Z,99874.00
2022-09-25T01:52:25.902Z,99873.00
2022-09-25T01:54:57.223Z,99870.00
2022-09-25T01:57:31.010Z,99870.00
2022-09-25T02:00:08.617Z,99878.00
2022-09-25T02:02:42.479Z,99879.00
2022-09-25T02:05:15.869Z,99870.00
2022-09-25T02:07:49.679Z,99873.00
2022-09-25T02:10:22.347Z,99864.00
2022-09-25T02:12:57.523Z,99866.00
2022-09-25T02:15:30.542Z,99859.00
2022-09-25T02:18:16.693Z,99863.00
2022-09-25T02:20:50.349Z,99865.00
2022-09-25T02:23:23.643Z,99859.00
2022-09-25T02:26:01.743Z,99860.00
2022-09-25T02:28:30.221Z,99857.00
2022-09-25T02:31:02.131Z,99867.00
2022-09-25T02:33:30.993Z,99864.00
2022-09-25T02:36:01.830Z,99862.00
2022-09-25T02:38:33.581Z,99856.00
2022-09-25T02:41:11.168Z,99866.00
2022-09-25T02:43:47.067Z,99868.00
2022-09-25T02:46:23.160Z,99862.00
2022-09-25T02:48:55.128Z,99855.00
2022-09-25T02:51:30.822Z,99864.00
2022-09-25T02:54:09.203Z,99863.00
2022-09-25T02:56:42.393Z,99857.00
2022-09-25T02:59:15.804Z,99857.00
2022-09-25T03:01:47.341Z,99881.00
2022-09-25T03:04:17.751Z,99865.00
2022-09-25T03:06:47.065Z,99873.00
2022-09-25T03:09:18.402Z,99875.00
2022-09-25T03:11:46.932Z,99869.00
2022-09-25T03:14:15.398Z,99857.00
2022-09-25T03:16:50.041Z,99859.00
2022-09-25T03:19:19.873Z,99858.00
2022-09-25T03:21:48.476Z,99860.00
2022-09-25T03:24:17.163Z,99861.00
2022-09-25T03:26:45.902Z,99851.00
2022-09-25T03:29:16.777Z,99842.00
2022-09-25T03:31:46.957Z,99847.00
2022-09-25T03:34:17.753Z,99850.00
2022-09-25T03:36:47.636Z,99835.00
2022-09-25T03:39:17.998Z,99846.00
2022-09-25T03:41:47.764Z,99844.00
2022-09-25T03:44:16.351Z,99845.00
2022-09-25T03:46:46.332Z,99850.00
2022-09-25T03:49:14.839Z,99852.00
2022-09-25T03:51:43.337Z,99855.00
2022-09-25T03:54:11.961Z,99858.00
2022-09-25T03:56:40.578Z,99838.00
2022-09-25T03:59:09.058Z,99834.00
2022-09-25T04:01:37.994Z,99837.00
2022-09-25T04:04:07.949Z,99846.00
2022-09-25T04:06:36.360Z,99843.00
2022-09-25T04:09:04.918Z,99839.00
2022-09-25T04:11:33.349Z,99846.00
2022-09-25T04:14:02.249Z,99849.00
2022-09-25T04:16:31.350Z,99841.00
2022-09-25T04:19:00.002Z,99840.00
2022-09-25T04:21:29.863Z,99847.00
2022-09-25T04:24:20.931Z,99844.00
2022-09-25T04:26:53.811Z,99839.00
2022-09-25T04:29:24.219Z,99844.00
2022-09-25T04:32:06.562Z,99844.00
2022-09-25T04:34:35.055Z,99845.00
2022-09-25T04:37:04.880Z,99851.00
2022-09-25T04:39:33.441Z,99842.00
2022-09-25T04:42:01.944Z,99851.00
2022-09-25T04:44:31.116Z,99847.00
2022-09-25T04:46:59.683Z,99853.00
2022-09-25T04:49:28.086Z,99852.00
2022-09-25T04:51:56.946Z,99857.00
2022-09-25T04:54:26.845Z,99855.00
2022-09-25T04:56:55.289Z,99859.00
2022-09-25T04:59:23.909Z,99857.00
2022-09-25T05:01:52.443Z,99862.00
2022-09-25T05:04:21.001Z,99862.00
2022-09-25T05:06:49.425Z,99864.00
2022-09-25T05:09:17.891Z,99879.00
2022-09-25T05:11:49.221Z,99879.00
2022-09-25T05:14:17.824Z,99878.00
2022-09-25T05:16:47.896Z,99878.00
2022-09-25T05:19:16.853Z,99872.00
2022-09-25T05:21:45.594Z,99873.00
2022-09-25T05:24:14.211Z,99875.00
2022-09-25T05:26:43.231Z,99878.00
2022-09-25T05:29:13.108Z,99878.00
2022-09-25T05:31:42.708Z,99878.00
2022-09-25T05:34:11.462Z,99883.00
2022-09-25T05:36:39.997Z,99868.00
2022-09-25T05:39:13.631Z,99873.00
2022-09-25T05:41:42.965Z,99879.00
2022-09-25T05:44:13.142Z,99871.00
2022-09-25T05:46:42.285Z,99874.00
2022-09-25T05:49:10.909Z,99865.00
2022-09-25T05:51:39.445Z,99869.00
2022-09-25T05:54:08.065Z,99865.00
2022-09-25T05:56:36.501Z,99861.00
2022-09-25T05:59:05.060Z,99860.00
2022-09-25T06:01:34.980Z,99864.00
2022-09-25T06:04:04.507Z,99872.00
2022-09-25T06:06:36.439Z,99869.00
2022-09-25T06:09:05.116Z,99856.00
2022-09-25T06:11:33.610Z,99862.00
2022-09-25T06:14:02.781Z,99863.00
2022-09-25T06:16:31.378Z,99866.00
2022-09-25T06:19:01.254Z,99868.00
2022-09-25T06:21:29.880Z,99874.00
2022-09-25T06:23:58.308Z,99873.00
2022-09-25T06:26:26.752Z,99877.00
2022-09-25T06:28:58.579Z,99875.00
2022-09-25T06:31:29.587Z,99882.00
2022-09-25T06:33:58.089Z,99876.00
2022-09-25T06:36:28.291Z,99887.00
2022-09-25T06:38:56.822Z,99882.00
2022-09-25T06:41:25.798Z,99882.00
2022-09-25T06:43:55.106Z,99880.00
2022-09-25T06:46:23.928Z,99879.00
2022-09-25T06:48:54.332Z,99894.00
2022-09-25T06:51:23.485Z,99887.00
2022-09-25T06:53:55.820Z,99888.00
2022-09-25T06:56:24.591Z,99891.00
2022-09-25T06:58:53.206Z,99886.00
2022-09-25T07:01:21.748Z,99892.00
2022-09-25T07:03:55.190Z,99889.00
2022-09-25T07:06:26.566Z,99885.00
2022-09-25T07:08:57.112Z,99896.00
2022-09-25T07:11:28.054Z,99895.00
2022-09-25T07:13:56.574Z,99885.00
2022-09-25T07:16:26.322Z,99891.00
2022-09-25T07:18:57.161Z,99876.00
2022-09-25T07:21:27.796Z,99880.00
2022-09-25T07:23:58.978Z,99874.00
2022-09-25T07:26:29.594Z,99879.00
2022-09-25T07:29:00.265Z,99879.00
2022-09-25T07:31:30.889Z,99874.00
2022-09-25T07:34:00.468Z,99881.00
2022-09-25T07:36:29.059Z,99876.00
2022-09-25T07:38:58.873Z,99884.00
2022-09-25T07:41:27.352Z,99883.00
2022-09-25T07:46:46.434Z,99881.00
2022-09-25T07:49:15.128Z,99888.00
2022-09-25T07:51:43.624Z,99875.00
2022-09-25T07:54:13.630Z,99886.00
2022-09-25T07:56:42.184Z,99885.00
2022-09-25T07:59:10.616Z,99879.00
2022-09-25T08:01:43.601Z,99878.00
2022-09-25T08:04:14.032Z,99880.00
2022-09-25T08:06:42.568Z,99883.00
2022-09-25T08:09:13.745Z,99874.00
2022-09-25T08:11:42.221Z,99878.00
2022-09-25T08:14:14.347Z,99874.00
2022-09-25T08:16:43.354Z,99880.00
2022-09-25T08:19:12.567Z,99884.00
2022-09-25T08:21:41.012Z,99877.00
2022-09-25T08:24:10.815Z,99872.00
2022-09-25T08:26:40.698Z,99862.00
2022-09-25T08:29:09.391Z,99863.00
2022-09-25T08:31:37.926Z,99857.00
2022-09-25T08:34:35.855Z,99859.00
2022-09-25T08:36:58.019Z,99853.00
2022-09-25T08:39:26.426Z,99861.00
2022-09-25T08:41:57.896Z,99849.00
2022-09-25T08:44:29.671Z,99847.00
2022-09-25T08:47:20.383Z,99855.00
2022-09-25T08:49:57.520Z,99848.00
2022-09-25T08:52:26.240Z,99845.00
2022-09-25T08:54:54.742Z,99853.00
2022-09-25T08:57:34.901Z,99852.00
2022-09-25T09:00:08.631Z,99844.00
2022-09-25T09:02:42.220Z,99850.00
2022-09-25T09:05:20.671Z,99847.00
2022-09-25T09:07:54.468Z,99840.00
2022-09-25T09:10:33.879Z,99845.00
2022-09-25T09:13:15.040Z,99845.00
2022-09-25T09:15:50.484Z,99842.00
2022-09-25T09:18:23.434Z,99847.00
2022-09-25T09:20:54.693Z,99836.00
2022-09-25T09:23:25.186Z,99842.00
2022-09-25T09:26:02.990Z,99834.00
2022-09-25T09:29:07.504Z,99832.00
2022-09-25T09:31:46.840Z,99826.00
2022-09-25T09:34:52.928Z,99821.00
2022-09-25T09:37:26.205Z,99828.00
2022-09-25T09:40:04.462Z,99827.00
2022-09-25T09:42:42.030Z,99832.00
2022-09-25T09:45:19.555Z,99831.00
2022-09-25T09:47:53.461Z,99830.00
2022-09-25T09:50:43.196Z,99830.00
2022-09-25T09:53:29.001Z,99826.00
2022-09-25T09:56:05.646Z,99831.00
2022-09-25T09:58:45.019Z,99838.00
2022-09-25T10:01:39.729Z,99833.00
2022-09-25T10:04:10.565Z,99826.00
2022-09-25T10:06:41.759Z,99821.00
2022-09-25T10:09:14.627Z,99821.00
2022-09-25T10:11:45.584Z,99827.00
2022-09-25T10:14:21.251Z,99824.00
2022-09-25T10:16:53.120Z,99827.00
2022-09-25T10:19:24.676Z,99811.00
2022-09-25T10:21:56.078Z,99826.00
2022-09-25T10:24:58.634Z,99811.00
2022-09-25T10:27:32.644Z,99806.00
2022-09-25T10:30:17.989Z,99804.00
2022-09-25T10:32:57.984Z,99807.00
2022-09-25T10:35:29.727Z,99802.00
2022-09-25T10:38:01.711Z,99794.00
2022-09-25T10:40:34.050Z,99804.00
2022-09-25T10:43:17.841Z,99805.00
2022-09-25T10:45:46.606Z,99803.00
2022-09-25T10:48:51.974Z,99798.00
2022-09-25T10:51:21.417Z,99796.00
2022-09-25T10:53:51.078Z,99801.00
2022-09-25T10:56:27.127Z,99804.00
2022-09-25T10:58:58.913Z,99793.00
2022-09-25T11:01:36.169Z,99791.00
2022-09-25T11:04:15.925Z,99787.00
2022-09-25T11:06:47.456Z,99784.00
2022-09-25T11:09:18.239Z,99780.00
2022-09-25T11:11:49.386Z,99780.00
2022-09-25T11:14:26.198Z,99770.00
2022-09-25T11:16:58.002Z,99772.00
2022-09-25T11:19:30.333Z,99773.00
2022-09-25T11:22:14.132Z,99766.00
2022-09-25T11:25:01.680Z,99764.00
2022-09-25T11:27:36.523Z,99757.00
2022-09-25T11:30:07.675Z,99758.00
2022-09-25T11:32:43.278Z,99758.00
2022-09-25T11:35:29.586Z,99759.00
2022-09-25T11:38:09.819Z,99757.00
2022-09-25T11:41:03.111Z,99758.00
2022-09-25T11:43:41.948Z,99751.00
2022-09-25T11:46:24.174Z,99756.00
2022-09-25T11:49:09.967Z,99767.00
2022-09-25T11:52:05.930Z,99751.00
2022-09-25T11:54:46.454Z,99749.00
2022-09-25T11:57:20.876Z,99752.00
2022-09-25T12:00:03.717Z,99751.00
2022-09-25T12:02:46.238Z,99749.00
2022-09-25T12:05:29.507Z,99745.00
2022-09-25T12:08:24.329Z,99747.00
2022-09-25T12:11:02.734Z,99749.00
2022-09-25T12:13:44.747Z,99749.00
2022-09-25T12:16:22.690Z,99752.00
2022-09-25T12:19:01.262Z,99742.00
2022-09-25T12:21:36.025Z,99743.00
2022-09-25T12:24:15.075Z,99747.00
2022-09-25T12:26:52.825Z,99741.00
2022-09-25T12:29:39.767Z,99736.00
2022-09-25T12:32:14.906Z,99738.00
2022-09-25T12:34:58.461Z,99728.00
2022-09-25T12:37:35.673Z,99735.00
2022-09-25T12:40:15.134Z,99730.00
2022-09-25T12:42:47.751Z,99731.00
2022-09-25T12:45:21.211Z,99728.00
2022-09-25T12:48:08.398Z,99726.00
2022-09-25T12:50:44.118Z,99726.00
2022-09-25T12:53:23.187Z,99718.00
2022-09-25T12:55:58.479Z,99721.00
2022-09-25T12:58:38.803Z,99718.00
2022-09-25T13:01:14.078Z,99715.00
2022-09-25T13:03:48.562Z,99711.00
2022-09-25T13:06:23.864Z,99713.00
2022-09-25T13:08:58.539Z,99717.00
2022-09-25T13:11:40.834Z,99707.00
2022-09-25T13:14:17.829Z,99709.00
2022-09-25T13:16:48.775Z,99717.00
2022-09-25T13:19:26.618Z,99707.00
2022-09-25T13:22:03.823Z,99709.00
2022-09-25T13:24:39.110Z,99709.00
2022-09-25T13:27:18.875Z,99710.00
2022-09-25T13:29:55.748Z,99694.00
2022-09-25T13:32:28.621Z,99699.00
2022-09-25T13:34:59.969Z,99697.00
2022-09-25T13:37:31.612Z,99693.00
2022-09-25T13:40:19.413Z,99694.00
2022-09-25T13:42:49.424Z,99695.00
2022-09-25T13:45:36.319Z,99687.00
2022-09-25T13:48:15.705Z,99691.00
2022-09-25T13:50:45.944Z,99680.00
2022-09-25T13:53:26.404Z,99682.00
2022-09-25T13:56:25.750Z,99678.00
2022-09-25T13:59:24.504Z,99684.00
2022-09-25T14:01:56.473Z,99681.00
2022-09-25T14:04:46.413Z,99690.00
2022-09-25T14:07:22.310Z,99687.00
2022-09-25T14:09:54.748Z,99692.00
2022-09-25T14:12:30.125Z,99691.00
2022-09-25T14:15:05.868Z,99687.00
2022-09-25T14:17:35.973Z,99682.00
2022-09-25T14:20:08.164Z,99672.00
2022-09-25T14:22:44.427Z,99679.00
2022-09-25T14:25:33.966Z,99673.00
2022-09-25T14:28:03.792Z,99677.00
2022-09-25T14:30:34.979Z,99666.00
2022-09-25T14:33:42.463Z,99667.00
2022-09-25T14:36:22.321Z,99663.00
2022-09-25T14:39:07.285Z,99661.00
2022-09-25T14:41:52.951Z,99648.00
2022-09-25T14:44:45.189Z,99653.00
2022-09-25T14:47:17.143Z,99645.00
2022-09-25T14:49:49.637Z,99647.00
2022-09-25T14:52:24.130Z,99648.00
2022-09-25T14:54:55.407Z,99635.00
2022-09-25T14:57:29.007Z,99642.00
2022-09-25T15:00:01.077Z,99639.00
2022-09-25T15:02:33.986Z,99631.00
2022-09-25T15:05:19.181Z,99631.00
2022-09-25T15:07:48.411Z,99622.00
2022-09-25T15:10:29.869Z,99626.00
2022-09-25T15:13:09.390Z,99628.00
2022-09-25T15:15:40.068Z,99629.00
2022-09-25T15:18:13.991Z,99626.00
2022-09-25T15:20:49.101Z,99623.00
2022-09-25T15:23:20.042Z,99633.00
2022-09-25T15:25:51.523Z,99631.00
2022-09-25T15:28:21.613Z,99638.00
2022-09-25T15:30:57.142Z,99630.00
2022-09-25T15:33:29.268Z,99632.00
2022-09-25T15:35:58.970Z,99637.00
2022-09-25T15:38:32.046Z,99621.00
2022-09-25T15:41:01.327Z,99623.00
2022-09-25T15:43:31.112Z,99630.00
2022-09-25T15:46:20.955Z,99631.00
2022-09-25T15:48:55.977Z,99624.00
2022-09-25T15:51:28.137Z,99619.00
2022-09-25T15:53:58.977Z,99633.00
2022-09-25T15:56:29.658Z,99637.00
2022-09-25T15:59:01.809Z,99635.00
2022-09-25T16:01:51.321Z,99626.00
2022-09-25T16:04:53.014Z,99624.00
2022-09-25T16:07:24.227Z,99626.00
2022-09-25T16:09:53.813Z,99630.00
2022-09-25T16:12:28.842Z,99627.00
2022-09-25T16:14:58.620Z,99623.00
2022-09-25T16:17:33.568Z,99622.00
2022-09-25T16:20:28.812Z,99629.00
2022-09-25T16:22:59.450Z,99626.00
2022-09-25T16:25:33.021Z,99632.00
2022-09-25T16:28:05.761Z,99623.00
2022-09-25T16:30:35.584Z,99629.00
2022-09-25T16:33:09.257Z,99620.00
2022-09-25T16:36:08.174Z,99626.00
2022-09-25T16:38:31.185Z,99621.00
2022-09-25T16:41:07.310Z,99624.00
2022-09-25T16:43:39.294Z,99623.00
2022-09-25T16:46:16.164Z,99626.00
2022-09-25T16:48:46.648Z,99622.00
2022-09-25T16:51:22.557Z,99625.00
2022-09-25T16:53:51.538Z,99620.00
2022-09-25T16:56:22.750Z,99626.00
2022-09-25T16:58:51.435Z,99624.00
2022-09-25T17:01:20.475Z,99621.00
2022-09-25T17:03:52.805Z,99617.00
2022-09-25T17:06:24.417Z,99617.00
2022-09-25T17:08:53.158Z,99627.00
2022-09-25T17:11:22.861Z,99624.00
2022-09-25T17:13:52.535Z,99619.00
2022-09-25T17:16:21.136Z,99626.00
2022-09-25T17:18:49.678Z,99619.00
2022-09-25T17:21:20.080Z,99622.00
2022-09-25T17:23:49.901Z,99613.00
2022-09-25T17:26:21.435Z,99610.00
2022-09-25T17:28:50.633Z,99614.00
2022-09-25T17:31:22.486Z,99618.00
2022-09-25T17:33:51.346Z,99614.00
2022-09-25T17:36:20.467Z,99615.00
2022-09-25T17:38:50.269Z,99610.00
2022-09-25T17:41:21.929Z,99608.00
2022-09-25T17:43:50.587Z,99607.00
2022-09-25T17:46:20.387Z,99610.00
2022-09-25T17:48:53.960Z,99620.00
2022-09-25T17:51:24.811Z,99614.00
2022-09-25T17:53:56.026Z,99617.00
2022-09-25T17:56:25.647Z,99609.00
2022-09-25T17:58:57.330Z,99620.00
2022-09-25T18:01:27.979Z,99620.00
2022-09-25T18:03:58.874Z,99623.00
2022-09-25T18:06:28.854Z,99622.00
2022-09-25T18:08:58.924Z,99608.00
2022-09-25T18:11:28.129Z,99619.00
2022-09-25T18:14:01.112Z,99621.00
2022-09-25T18:16:31.613Z,99629.00
2022-09-25T18:19:17.788Z,99614.00
2022-09-25T18:22:03.857Z,99623.00
2022-09-25T18:24:33.680Z,99624.00
2022-09-25T18:27:02.168Z,99620.00
2022-09-25T18:29:30.686Z,99629.00
2022-09-25T18:31:59.602Z,99636.00
2022-09-25T18:34:29.542Z,99631.00
2022-09-25T18:36:57.977Z,99633.00
2022-09-25T18:39:26.434Z,99630.00
2022-09-25T18:41:56.284Z,99625.00
2022-09-25T18:44:24.827Z,99622.00
2022-09-25T18:46:54.673Z,99623.00
2022-09-25T18:49:24.022Z,99630.00
2022-09-25T18:51:52.562Z,99633.00
2022-09-25T18:54:21.472Z,99630.00
2022-09-25T18:56:50.056Z,99636.00
2022-09-25T18:59:19.968Z,99632.00
2022-09-25T19:01:48.518Z,99628.00
2022-09-25T19:04:17.789Z,99631.00
2022-09-25T19:06:46.270Z,99628.00
2022-09-25T19:09:16.899Z,99630.00
2022-09-25T19:11:45.680Z,99629.00
2022-09-25T19:14:14.896Z,99632.00
2022-09-25T19:16:46.202Z,99634.00
2022-09-25T19:19:14.953Z,99632.00
2022-09-25T19:21:44.779Z,99631.00
2022-09-25T19:24:13.737Z,99630.00
2022-09-25T19:26:44.277Z,99634.00
2022-09-25T19:29:12.853Z,99630.00
2022-09-25T19:31:41.472Z,99629.00
2022-09-25T19:34:11.539Z,99627.00
2022-09-25T19:36:40.106Z,99614.00
2022-09-25T19:39:08.669Z,99619.00
2022-09-25T19:41:39.081Z,99613.00
2022-09-25T19:44:13.147Z,99607.00
2022-09-25T19:46:42.607Z,99609.00
2022-09-25T19:49:12.898Z,99604.00
2022-09-25T19:51:42.169Z,99607.00
2022-09-25T19:54:14.057Z,99604.00
2022-09-25T19:56:43.161Z,99609.00
2022-09-25T19:59:14.699Z,99614.00
2022-09-25T20:01:44.190Z,99614.00
2022-09-25T20:04:18.613Z,99608.00
2022-09-25T20:06:48.605Z,99611.00
2022-09-25T20:09:17.315Z,99608.00
2022-09-25T20:11:46.249Z,99621.00
2022-09-25T20:14:14.794Z,99618.00
2022-09-25T20:16:43.322Z,99617.00
2022-09-25T20:19:13.899Z,99615.00
2022-09-25T20:21:42.495Z,99624.00
2022-09-25T20:24:11.212Z,99611.00
2022-09-25T20:26:39.809Z,99624.00
2022-09-25T20:29:10.384Z,99616.00
2022-09-25T20:31:40.107Z,99619.00
2022-09-25T20:34:11.876Z,99621.00
2022-09-25T20:36:41.946Z,99616.00
2022-09-25T20:39:10.525Z,99619.00
2022-09-25T20:41:39.657Z,99613.00
2022-09-25T20:44:08.965Z,99623.00
2022-09-25T20:46:37.666Z,99627.00
2022-09-25T20:49:06.242Z,99622.00
2022-09-25T20:51:36.013Z,99610.00
2022-09-25T20:54:07.822Z,99619.00
2022-09-25T20:56:37.919Z,99611.00
2022-09-25T20:59:07.092Z,99623.00
2022-09-25T21:01:38.233Z,99611.00
2022-09-25T21:04:08.828Z,99617.00
2022-09-25T21:06:38.748Z,99610.00
2022-09-25T21:09:11.427Z,99608.00
2022-09-25T21:11:43.209Z,99601.00
2022-09-25T21:14:16.580Z,99600.00
2022-09-25T21:16:45.238Z,99595.00
2022-09-25T21:19:15.388Z,99596.00
2022-09-25T21:21:44.379Z,99603.00
2022-09-25T21:24:18.015Z,99596.00
2022-09-25T21:26:47.368Z,99613.00
2022-09-25T21:29:17.242Z,99605.00
2022-09-25T21:31:49.771Z,99607.00
2022-09-25T21:34:19.810Z,99601.00
2022-09-25T21:36:49.094Z,99605.00
2022-09-25T21:39:20.994Z,99599.00
2022-09-25T21:41:50.297Z,99596.00
2022-09-25T21:44:23.466Z,99595.00
2022-09-25T21:46:52.020Z,99600.00
2022-09-25T21:49:22.253Z,99587.00
2022-09-25T21:51:51.099Z,99596.00
2022-09-25T21:54:21.922Z,99598.00
2022-09-25T21:56:50.403Z,99597.00
2022-09-25T21:59:19.294Z,99592.00
2022-09-25T22:01:47.938Z,99591.00
2022-09-25T22:04:16.896Z,99581.00
2022-09-25T22:06:47.438Z,99595.00
2022-09-25T22:09:17.742Z,99584.00
2022-09-25T22:11:47.857Z,99590.00
2022-09-25T22:14:17.269Z,99592.00
2022-09-25T22:16:47.637Z,99589.00
2022-09-25T22:19:18.884Z,99591.00
2022-09-25T22:21:49.451Z,99585.00
2022-09-25T22:24:18.260Z,99594.00
2022-09-25T22:26:51.432Z,99593.00
2022-09-25T22:29:21.206Z,99584.00
2022-09-25T22:31:50.047Z,99583.00
2022-09-25T22:34:21.451Z,99585.00
2022-09-25T22:36:54.874Z,99593.00
2022-09-25T22:39:26.574Z,99584.00
2022-09-25T22:41:57.525Z,99596.00
2022-09-25T22:44:26.246Z,99579.00
2022-09-25T22:46:54.931Z,99582.00
2022-09-25T22:49:23.412Z,99583.00
2022-09-25T22:51:51.862Z,99580.00
2022-09-25T22:54:20.541Z,99568.00
2022-09-25T22:56:49.035Z,99573.00
2022-09-25T22:59:19.046Z,99573.00
2022-09-25T23:01:50.264Z,99567.00
2022-09-25T23:04:20.940Z,99567.00
2022-09-25T23:06:49.720Z,99562.00
2022-09-25T23:09:20.231Z,99568.00
2022-09-25T23:11:48.873Z,99555.00
2022-09-25T23:14:21.626Z,99563.00
2022-09-25T23:16:51.769Z,99565.00
2022-09-25T23:19:21.449Z,99563.00
2022-09-25T23:21:51.634Z,99555.00
2022-09-25T23:24:22.041Z,99556.00
2022-09-25T23:26:50.815Z,99555.00
2022-09-25T23:29:22.663Z,99563.00
2022-09-25T23:31:51.687Z,99567.00
2022-09-25T23:34:20.292Z,99549.00
2022-09-25T23:36:48.777Z,99554.00
2022-09-25T23:39:18.918Z,99547.00
2022-09-25T23:41:47.837Z,99546.00
2022-09-25T23:44:16.525Z,99553.00
2022-09-25T23:46:46.407Z,99549.00
2022-09-25T23:49:15.249Z,99532.00
2022-09-25T23:51:43.858Z,99536.00
2022-09-25T23:54:12.870Z,99531.00
2022-09-25T23:56:42.027Z,99533.00
2022-09-25T23:59:12.381Z,99527.00
